Madrid, España

1:57 AM CEST en Octubre 01, 2014 (GMT +0200)
Madrid - Las Mercedes | Change Station
CLOSE
Current Station
Estación meteorológica personal
Location: Madrid, COMUNIDAD DE MADRID
Altura: 2037 ft
Estaciones meteorológicas cercanas

Alt 2037 ft 40.44 °N, 3.59 °W | Updated 11 minutes ago

Clear
Despejado
64.0 ° F
Sensación térmica 64.0 ° F
N
4.5
Viento Variable Viento desde NE
Gusts 7.6 mph

Hoy
Alta -- | Baja -- ° F
--% Posibilidad de precipitaciones
Ayer
Alta -- | Baja -- ° F
Precip. -- pul
8:10 AM 7:56 PM
Creciente, 41% visible
Presión 30.27 pul
Visibilidad -9999.0 Millas
Nubes
Punto de rocío 52 ° F
Humedad 65%
Precipitaciones 0.00 pul
Espesor de la nieve No disponible.
UV No disponible.
Polen No disponible.
Calidad del aire No disponible.
Flu Activity No disponible.
METAR LEMD 302330Z 36006KT CAVOK 18/10 Q1025 NOSIG

More Conditions Fewer Conditions

Presión 30.27 pul
Visibilidad -9999.0 Millas
Nubes
Punto de rocío 52 ° F
Humedad 65%
Precipitaciones 0.00 pul
Espesor de la nieve No disponible.
UV No disponible.
Polen No disponible.
Calidad del aire No disponible.
Flu Activity No disponible.
METAR LEMD 302330Z 36006KT CAVOK 18/10 Q1025 NOSIG

More Conditions Fewer Conditions

10-Day Weather Forecast

Almanac

Astronomía

Oct. 01, 2014 Salida Puesta
Hora real 8:10 AM CEST 7:56 PM CEST
Crepúsculo civil 7:43 AM CEST 8:23 PM CEST
Crepúsculo náutico 7:11 AM CEST 8:55 PM CEST
Crepúsculo astronómico 6:39 AM CEST 9:27 PM CEST
Luna 2:59 PM CEST (10/1) 12:13 AM CEST (10/1)
Horas de luz 12h 40m
Horas de luz
11h 46m
Tomorrow will be 2m 39s shorter.
Creciente, 41% of the Moon is Illuminated
Sep 30
Creciente
Oct 1
Cuarto creciente
Oct 8
Luna llena
Oct 15
Cuarto menguante
Oct 23
Nueva

Extremos de ayer

Máximos del país Bajas del país

Community

WunderPhotos

Upload Photos

1,757,785 ¡fotos cargadas!

Nearby

Calidad del aire

Not available.

Grosos de nieve

Not available.

Actividad de terremotos

Ciudad Distance Mag. Tiempo y dato
No hay informes recientes de la actividad sísmica.
Magnitud mínima muestra es 2,5.

Temperaturas de aguas costeras

Lugar Temperatura
Sin partes meteorológicos de las estaciones

Estaciones meteorológicas cercanas